createdAt,value
2022-10-30T00:00:13.259Z,76.80
2022-10-30T00:03:21.778Z,76.90
2022-10-30T00:06:10.293Z,77.00
2022-10-30T00:09:00.030Z,77.00
2022-10-30T00:11:48.438Z,76.90
2022-10-30T00:14:37.086Z,77.00
2022-10-30T00:17:25.272Z,77.00
2022-10-30T00:20:14.194Z,77.00
2022-10-30T00:23:02.009Z,77.00
2022-10-30T00:25:52.369Z,77.00
2022-10-30T00:28:40.644Z,77.00
2022-10-30T00:31:29.493Z,77.10
2022-10-30T00:34:17.485Z,77.10
2022-10-30T00:37:06.519Z,77.10
2022-10-30T00:39:54.544Z,77.10
2022-10-30T00:42:44.992Z,77.10
2022-10-30T00:45:33.445Z,77.10
2022-10-30T00:48:26.165Z,77.10
2022-10-30T00:51:16.205Z,77.10
2022-10-30T00:54:08.718Z,77.10
2022-10-30T00:56:57.429Z,77.10
2022-10-30T00:59:48.055Z,77.10
2022-10-30T01:02:36.571Z,77.10
2022-10-30T01:05:29.230Z,77.20
2022-10-30T01:08:17.130Z,77.10
2022-10-30T01:11:07.351Z,77.10
2022-10-30T01:13:59.128Z,77.10
2022-10-30T01:17:12.231Z,77.20
2022-10-30T01:20:11.117Z,77.20
2022-10-30T01:23:08.910Z,77.20
2022-10-30T01:26:06.646Z,77.20
2022-10-30T01:29:21.209Z,77.20
2022-10-30T01:32:28.402Z,77.20
2022-10-30T01:35:22.369Z,77.20
2022-10-30T01:38:17.106Z,77.20
2022-10-30T01:41:06.097Z,77.20
2022-10-30T01:43:59.005Z,77.20
2022-10-30T01:47:03.354Z,77.20
2022-10-30T01:50:10.369Z,77.20
2022-10-30T01:53:06.069Z,77.20
2022-10-30T01:56:07.452Z,77.20
2022-10-30T01:59:04.140Z,77.20
2022-10-30T02:01:52.488Z,77.20
2022-10-30T02:04:41.439Z,77.20
2022-10-30T02:07:31.124Z,77.20
2022-10-30T02:10:19.905Z,77.20
2022-10-30T02:13:08.192Z,77.20
2022-10-30T02:15:58.137Z,77.30
2022-10-30T02:18:46.419Z,77.30
2022-10-30T02:21:36.730Z,77.30
2022-10-30T02:24:25.520Z,77.30
2022-10-30T02:27:14.251Z,77.30
2022-10-30T02:30:03.017Z,77.30
2022-10-30T02:32:51.780Z,77.30
2022-10-30T02:35:40.148Z,77.30
2022-10-30T02:38:31.543Z,77.30
2022-10-30T02:41:19.867Z,77.30
2022-10-30T02:44:08.387Z,77.30
2022-10-30T02:46:56.818Z,77.30
2022-10-30T02:49:46.022Z,77.40
2022-10-30T02:52:34.270Z,77.40
2022-10-30T02:55:24.478Z,77.30
2022-10-30T02:58:15.100Z,77.30
2022-10-30T03:01:08.639Z,77.30
2022-10-30T03:03:57.206Z,77.40
2022-10-30T03:06:45.488Z,77.40
2022-10-30T03:09:33.475Z,77.40
2022-10-30T03:12:24.222Z,77.40
2022-10-30T03:15:13.458Z,77.40
2022-10-30T03:18:02.201Z,77.50
2022-10-30T03:20:50.400Z,77.50
2022-10-30T03:23:39.181Z,77.50
2022-10-30T03:26:27.474Z,77.50
2022-10-30T03:29:23.720Z,77.60
2022-10-30T03:32:12.839Z,77.50
2022-10-30T03:35:14.958Z,77.50
2022-10-30T03:38:03.526Z,77.60
2022-10-30T03:40:53.993Z,77.50
2022-10-30T03:43:42.296Z,77.60
2022-10-30T03:46:32.373Z,77.70
2022-10-30T03:49:34.957Z,77.50
2022-10-30T03:52:29.134Z,77.60
2022-10-30T03:55:17.563Z,77.60
2022-10-30T03:58:06.800Z,77.60
2022-10-30T04:00:56.111Z,77.60
2022-10-30T04:03:46.427Z,77.60
2022-10-30T04:06:34.881Z,77.60
2022-10-30T04:09:23.870Z,77.60
2022-10-30T04:12:11.917Z,77.60
2022-10-30T04:15:01.617Z,77.70
2022-10-30T04:17:51.293Z,77.60
2022-10-30T04:20:42.127Z,77.60
2022-10-30T04:23:30.206Z,77.70
2022-10-30T04:26:18.865Z,77.60
2022-10-30T04:29:07.338Z,77.70
2022-10-30T04:31:56.184Z,77.70
2022-10-30T04:34:44.729Z,77.70
2022-10-30T04:37:34.734Z,77.70
2022-10-30T04:40:23.352Z,77.70
2022-10-30T04:43:18.520Z,77.70
2022-10-30T04:46:10.621Z,77.60
2022-10-30T04:48:59.401Z,77.70
2022-10-30T04:51:47.596Z,77.60
2022-10-30T04:54:37.905Z,77.60
2022-10-30T04:57:26.013Z,77.60
2022-10-30T05:00:17.310Z,77.60
2022-10-30T05:03:06.274Z,77.60
2022-10-30T05:06:00.296Z,77.60
2022-10-30T05:08:48.239Z,77.60
2022-10-30T05:11:59.159Z,77.60
2022-10-30T05:14:51.565Z,77.70
2022-10-30T05:17:40.115Z,77.60
2022-10-30T05:20:28.517Z,77.70
2022-10-30T05:23:18.881Z,77.60
2022-10-30T05:26:07.669Z,77.60
2022-10-30T05:28:57.717Z,77.60
2022-10-30T05:31:46.264Z,77.60
2022-10-30T05:34:37.657Z,77.70
2022-10-30T05:37:25.855Z,77.70
2022-10-30T05:40:15.097Z,77.70
2022-10-30T05:43:03.672Z,77.70
2022-10-30T05:45:53.792Z,77.70
2022-10-30T05:48:41.762Z,77.80
2022-10-30T05:51:30.674Z,77.80
2022-10-30T05:54:25.250Z,77.90
2022-10-30T05:57:25.669Z,77.90
2022-10-30T06:00:15.687Z,77.90
2022-10-30T06:03:07.593Z,77.90
2022-10-30T06:05:56.132Z,77.90
2022-10-30T06:08:45.061Z,77.80
2022-10-30T06:11:51.720Z,77.90
2022-10-30T06:14:45.362Z,78.00
2022-10-30T06:17:33.798Z,78.00
2022-10-30T06:20:36.664Z,78.00
2022-10-30T06:23:43.888Z,78.00
2022-10-30T06:26:52.153Z,78.00
2022-10-30T06:29:40.439Z,77.90
2022-10-30T06:32:29.249Z,77.80
2022-10-30T06:35:18.032Z,77.80
2022-10-30T06:38:08.929Z,77.80
2022-10-30T06:40:57.749Z,77.80
2022-10-30T06:43:51.870Z,77.70
2022-10-30T06:46:43.410Z,77.70
2022-10-30T06:49:33.288Z,77.70
2022-10-30T06:52:23.128Z,77.80
2022-10-30T06:55:15.443Z,77.80
2022-10-30T06:58:30.422Z,77.90
2022-10-30T07:01:29.343Z,78.00
2022-10-30T07:04:22.138Z,78.00
2022-10-30T07:07:11.186Z,78.00
2022-10-30T07:09:59.409Z,78.00
2022-10-30T07:13:10.004Z,77.90
2022-10-30T07:16:07.570Z,77.90
2022-10-30T07:19:02.220Z,77.90
2022-10-30T07:21:53.527Z,77.90
2022-10-30T07:24:42.498Z,78.00
2022-10-30T07:27:30.814Z,78.00
2022-10-30T07:30:33.283Z,78.00
2022-10-30T07:33:50.537Z,78.00
2022-10-30T07:37:02.256Z,78.10
2022-10-30T07:40:00.302Z,78.10
2022-10-30T07:43:07.751Z,78.00
2022-10-30T07:46:13.952Z,78.10
2022-10-30T07:49:25.448Z,78.00
2022-10-30T07:52:20.202Z,78.00
2022-10-30T07:55:11.451Z,77.90
2022-10-30T07:57:59.676Z,77.90
2022-10-30T08:01:16.700Z,77.90
2022-10-30T08:04:05.153Z,78.00
2022-10-30T08:06:54.328Z,77.90
2022-10-30T08:09:42.687Z,78.00
2022-10-30T08:12:33.527Z,78.00
2022-10-30T08:15:21.648Z,78.00
2022-10-30T08:18:12.143Z,78.00
2022-10-30T08:21:02.479Z,78.10
2022-10-30T08:23:52.657Z,78.00
2022-10-30T08:26:41.693Z,78.00
2022-10-30T08:29:33.034Z,78.00
2022-10-30T08:32:21.520Z,78.10
2022-10-30T08:35:30.904Z,78.10
2022-10-30T08:38:21.169Z,78.10
2022-10-30T08:41:20.439Z,78.10
2022-10-30T08:44:12.671Z,78.10
2022-10-30T08:47:21.325Z,78.20
2022-10-30T08:50:10.758Z,78.10
2022-10-30T08:53:04.203Z,78.10
2022-10-30T08:55:53.381Z,78.30
2022-10-30T08:59:02.801Z,78.20
2022-10-30T09:01:51.471Z,78.10
2022-10-30T09:04:40.159Z,78.20
2022-10-30T09:07:48.969Z,78.30
2022-10-30T09:11:17.652Z,78.20
2022-10-30T09:14:05.825Z,78.20
2022-10-30T09:16:55.960Z,78.10
2022-10-30T09:19:45.287Z,78.20
2022-10-30T09:22:42.765Z,78.10
2022-10-30T09:25:31.879Z,78.10
2022-10-30T09:28:44.479Z,78.20
2022-10-30T09:32:10.180Z,78.20
2022-10-30T09:35:13.376Z,78.20
2022-10-30T09:38:03.293Z,78.10
2022-10-30T09:41:14.537Z,78.20
2022-10-30T09:44:17.186Z,78.20
2022-10-30T09:47:23.403Z,78.10
2022-10-30T09:50:27.081Z,78.10
2022-10-30T09:53:31.882Z,78.00
2022-10-30T09:56:30.509Z,78.10
2022-10-30T09:59:31.768Z,78.10
2022-10-30T10:02:31.728Z,78.00
2022-10-30T10:05:24.854Z,77.90
2022-10-30T10:08:40.339Z,78.00
2022-10-30T10:11:52.863Z,78.00
2022-10-30T10:14:46.133Z,78.00
2022-10-30T10:17:38.723Z,78.00
2022-10-30T10:20:37.582Z,78.10
2022-10-30T10:23:34.155Z,78.10
2022-10-30T10:26:32.089Z,78.10
2022-10-30T10:29:42.291Z,78.00
2022-10-30T10:33:03.155Z,78.10
2022-10-30T10:36:01.007Z,78.00
2022-10-30T10:39:18.385Z,78.00
2022-10-30T10:42:18.467Z,78.00
2022-10-30T10:45:21.700Z,78.00
2022-10-30T10:48:39.829Z,78.00
2022-10-30T10:51:33.550Z,78.00
2022-10-30T10:54:26.356Z,78.00
2022-10-30T10:57:24.561Z,78.00
2022-10-30T11:00:18.288Z,78.00
2022-10-30T11:03:11.272Z,78.10
2022-10-30T11:06:13.514Z,78.10
2022-10-30T11:09:13.932Z,78.20
2022-10-30T11:12:02.822Z,78.20
2022-10-30T11:14:51.174Z,78.20
2022-10-30T11:17:44.211Z,78.10
2022-10-30T11:20:39.221Z,78.10
2022-10-30T11:23:43.296Z,78.20
2022-10-30T11:26:34.329Z,78.20
2022-10-30T11:29:25.575Z,78.10
2022-10-30T11:32:21.429Z,78.30
2022-10-30T11:35:15.176Z,78.20
2022-10-30T11:38:15.288Z,78.20
2022-10-30T11:41:05.965Z,78.30
2022-10-30T11:43:54.226Z,78.30
2022-10-30T11:46:43.422Z,78.40
2022-10-30T11:49:41.510Z,78.40
2022-10-30T11:52:30.478Z,78.40
2022-10-30T11:55:24.334Z,78.40
2022-10-30T11:58:25.478Z,78.40
2022-10-30T12:01:20.810Z,78.40
2022-10-30T12:04:23.435Z,78.40
2022-10-30T12:07:21.877Z,78.40
2022-10-30T12:10:25.793Z,78.50
2022-10-30T12:13:18.313Z,78.50
2022-10-30T12:16:15.888Z,78.50
2022-10-30T12:19:06.366Z,78.50
2022-10-30T12:21:57.253Z,78.50
2022-10-30T12:24:46.031Z,78.50
2022-10-30T12:27:38.669Z,78.50
2022-10-30T12:30:32.318Z,78.50
2022-10-30T12:33:25.653Z,78.60
2022-10-30T12:36:17.863Z,78.60
2022-10-30T12:39:12.917Z,78.60
2022-10-30T12:42:05.293Z,78.60
2022-10-30T12:45:00.039Z,78.60
2022-10-30T12:47:53.406Z,78.60
2022-10-30T12:50:47.985Z,78.60
2022-10-30T12:53:44.627Z,78.70
2022-10-30T12:56:37.517Z,78.70
2022-10-30T12:59:36.732Z,78.60
2022-10-30T13:02:38.152Z,78.60
2022-10-30T13:05:40.968Z,78.70
2022-10-30T13:08:34.155Z,78.60
2022-10-30T13:11:34.180Z,78.70
2022-10-30T13:14:31.253Z,78.70
2022-10-30T13:17:19.714Z,78.70
2022-10-30T13:20:15.499Z,78.70
2022-10-30T13:23:12.091Z,78.70
2022-10-30T13:26:15.158Z,78.70
2022-10-30T13:29:13.753Z,78.70
2022-10-30T13:32:19.707Z,78.80
2022-10-30T13:35:20.592Z,78.80
2022-10-30T13:38:26.273Z,78.70
2022-10-30T13:41:25.450Z,78.70
2022-10-30T13:44:27.823Z,78.80
2022-10-30T13:47:25.784Z,78.80
2022-10-30T13:50:29.699Z,78.80
2022-10-30T13:53:25.431Z,78.80
2022-10-30T13:56:18.337Z,78.80
2022-10-30T13:59:19.985Z,78.80
2022-10-30T14:02:22.866Z,78.80
2022-10-30T14:05:29.213Z,78.80
2022-10-30T14:08:25.904Z,78.80
2022-10-30T14:11:15.343Z,78.80
2022-10-30T14:14:12.901Z,78.80
2022-10-30T14:17:15.626Z,78.80
2022-10-30T14:20:23.846Z,78.80
2022-10-30T14:23:15.772Z,78.80
2022-10-30T14:26:16.765Z,78.80
2022-10-30T14:29:45.702Z,78.80
2022-10-30T14:32:49.373Z,78.90
2022-10-30T14:35:40.292Z,78.90
2022-10-30T14:38:35.914Z,78.90
2022-10-30T14:41:45.356Z,78.90
2022-10-30T14:44:57.747Z,78.90
2022-10-30T14:47:55.702Z,78.90
2022-10-30T14:50:58.517Z,78.90
2022-10-30T14:53:57.375Z,79.40
2022-10-30T14:56:50.089Z,78.90
2022-10-30T14:59:39.538Z,78.90
2022-10-30T15:02:38.521Z,78.80
2022-10-30T15:05:44.686Z,78.80
2022-10-30T15:08:51.254Z,78.90
2022-10-30T15:12:01.264Z,78.90
2022-10-30T15:14:56.583Z,78.90
2022-10-30T15:17:47.671Z,78.90
2022-10-30T15:20:39.349Z,78.90
2022-10-30T15:23:29.943Z,78.90
2022-10-30T15:26:21.036Z,78.90
2022-10-30T15:29:18.341Z,78.90
2022-10-30T15:32:17.813Z,78.80
2022-10-30T15:35:19.050Z,78.80
2022-10-30T15:38:11.033Z,78.90
2022-10-30T15:41:02.380Z,78.90
2022-10-30T15:43:51.238Z,78.90
2022-10-30T15:46:41.510Z,78.90
2022-10-30T15:49:34.653Z,78.90
2022-10-30T15:52:25.456Z,78.90
2022-10-30T15:55:18.751Z,78.80
2022-10-30T15:58:07.294Z,78.90
2022-10-30T16:00:59.014Z,78.90
2022-10-30T16:03:54.110Z,78.90
2022-10-30T16:06:50.442Z,78.80
2022-10-30T16:09:38.585Z,78.80
2022-10-30T16:12:29.134Z,78.90
2022-10-30T16:15:27.503Z,78.90
2022-10-30T16:18:20.881Z,79.00
2022-10-30T16:21:15.820Z,78.90
2022-10-30T16:24:05.698Z,79.00
2022-10-30T16:27:05.440Z,78.90
2022-10-30T16:29:57.263Z,78.90
2022-10-30T16:32:52.538Z,78.90
2022-10-30T16:35:41.534Z,78.90
2022-10-30T16:38:36.900Z,78.90
2022-10-30T16:41:28.339Z,78.90
2022-10-30T16:44:20.050Z,78.90
2022-10-30T16:47:23.758Z,78.90
2022-10-30T16:50:15.036Z,79.00
2022-10-30T16:53:07.447Z,79.00
2022-10-30T16:55:58.620Z,79.00
2022-10-30T16:58:47.089Z,79.10
2022-10-30T17:01:35.600Z,79.00
2022-10-30T17:04:24.336Z,79.00
2022-10-30T17:07:20.894Z,79.10
2022-10-30T17:10:33.989Z,79.00
2022-10-30T17:13:37.483Z,79.10
2022-10-30T17:16:27.694Z,79.10
2022-10-30T17:19:46.402Z,79.10
2022-10-30T17:22:35.211Z,79.10
2022-10-30T17:25:32.281Z,79.10
2022-10-30T17:28:27.817Z,79.10
2022-10-30T17:31:28.273Z,79.10
2022-10-30T17:34:19.436Z,79.10
2022-10-30T17:37:07.677Z,79.20
2022-10-30T17:39:56.338Z,79.20
2022-10-30T17:42:44.695Z,79.20
2022-10-30T17:45:33.636Z,79.20
2022-10-30T17:48:27.073Z,79.20
2022-10-30T17:51:17.501Z,79.20
2022-10-30T17:54:11.262Z,79.20
2022-10-30T17:57:00.259Z,79.20
2022-10-30T17:59:48.337Z,79.20
2022-10-30T18:02:38.060Z,79.20
2022-10-30T18:05:30.637Z,79.20
2022-10-30T18:08:19.276Z,79.20
2022-10-30T18:11:07.274Z,79.20
2022-10-30T18:13:58.439Z,79.20
2022-10-30T18:16:49.125Z,79.20
2022-10-30T18:19:41.880Z,79.20
2022-10-30T18:22:31.196Z,79.20
2022-10-30T18:25:23.513Z,79.20
2022-10-30T18:28:11.516Z,79.30
2022-10-30T18:31:01.451Z,79.30
2022-10-30T18:33:49.804Z,79.30
2022-10-30T18:36:38.551Z,79.30
2022-10-30T18:39:27.871Z,79.30
2022-10-30T18:42:16.835Z,79.30
2022-10-30T18:45:17.826Z,79.30
2022-10-30T18:48:07.511Z,79.20
2022-10-30T18:50:55.825Z,79.20
2022-10-30T18:53:51.662Z,79.20
2022-10-30T18:56:41.392Z,79.20
2022-10-30T18:59:31.117Z,79.20
2022-10-30T19:02:24.059Z,79.20
2022-10-30T19:05:21.401Z,79.20
2022-10-30T19:08:10.310Z,79.10
2022-10-30T19:10:59.019Z,79.10
2022-10-30T19:13:48.779Z,79.20
2022-10-30T19:16:37.564Z,79.10
2022-10-30T19:19:26.098Z,79.10
2022-10-30T19:22:15.601Z,79.20
2022-10-30T19:25:14.630Z,79.10
2022-10-30T19:28:05.432Z,79.10
2022-10-30T19:30:54.964Z,79.10
2022-10-30T19:33:45.010Z,79.10
2022-10-30T19:36:36.259Z,79.00
2022-10-30T19:39:28.523Z,79.00
2022-10-30T19:42:16.956Z,79.00
2022-10-30T19:45:06.189Z,79.00
2022-10-30T19:47:57.446Z,79.00
2022-10-30T19:50:47.858Z,79.00
2022-10-30T19:53:36.424Z,78.90
2022-10-30T19:56:25.473Z,78.90
2022-10-30T19:59:15.295Z,79.00
2022-10-30T20:02:04.099Z,78.90
2022-10-30T20:04:53.786Z,79.00
2022-10-30T20:07:42.659Z,78.90
2022-10-30T20:10:33.370Z,78.90
2022-10-30T20:13:23.444Z,78.90
2022-10-30T20:16:12.259Z,78.90
2022-10-30T20:19:01.184Z,79.00
2022-10-30T20:21:50.760Z,78.90
2022-10-30T20:24:39.977Z,78.90
2022-10-30T20:27:28.320Z,78.90
2022-10-30T20:30:20.270Z,78.90
2022-10-30T20:33:11.208Z,78.90
2022-10-30T20:35:59.774Z,78.80
2022-10-30T20:38:49.533Z,78.90
2022-10-30T20:41:41.535Z,78.80
2022-10-30T20:44:29.887Z,78.80
2022-10-30T20:47:18.861Z,78.90
2022-10-30T20:50:08.210Z,78.80
2022-10-30T20:52:56.719Z,78.80
2022-10-30T20:55:47.194Z,78.80
2022-10-30T20:58:40.101Z,78.80
2022-10-30T21:01:28.597Z,78.90
2022-10-30T21:04:17.310Z,78.80
2022-10-30T21:07:05.478Z,78.90
2022-10-30T21:09:54.367Z,78.90
2022-10-30T21:12:44.032Z,78.90
2022-10-30T21:15:32.850Z,78.90
2022-10-30T21:18:21.044Z,78.90
2022-10-30T21:21:11.768Z,78.80
2022-10-30T21:24:00.694Z,78.90
2022-10-30T21:26:49.129Z,78.90
2022-10-30T21:29:38.837Z,78.80
2022-10-30T21:32:30.642Z,78.90
2022-10-30T21:35:19.430Z,78.80
2022-10-30T21:38:08.286Z,78.80
2022-10-30T21:40:56.979Z,78.80
2022-10-30T21:43:49.663Z,78.90
2022-10-30T21:46:39.591Z,78.80
2022-10-30T21:49:28.368Z,78.80
2022-10-30T21:52:16.773Z,78.80
2022-10-30T21:55:05.703Z,78.90
2022-10-30T21:57:54.097Z,78.90
2022-10-30T22:00:42.642Z,78.90
2022-10-30T22:03:35.346Z,78.90
2022-10-30T22:06:24.638Z,78.90
2022-10-30T22:09:16.343Z,78.90
2022-10-30T22:12:04.925Z,78.80
2022-10-30T22:14:53.200Z,78.90
2022-10-30T22:17:41.763Z,78.90
2022-10-30T22:20:31.486Z,78.80
2022-10-30T22:23:20.286Z,78.80
2022-10-30T22:26:12.018Z,78.90
2022-10-30T22:29:02.250Z,78.90
2022-10-30T22:31:51.186Z,78.90
2022-10-30T22:34:40.081Z,78.90
2022-10-30T22:37:29.538Z,78.90
2022-10-30T22:40:18.146Z,78.90
2022-10-30T22:43:06.498Z,78.90
2022-10-30T22:45:55.222Z,78.90
2022-10-30T22:48:43.748Z,78.90
2022-10-30T22:51:33.522Z,78.90
2022-10-30T22:54:23.168Z,78.80
2022-10-30T22:57:11.718Z,78.80
2022-10-30T23:00:00.196Z,78.80
2022-10-30T23:02:49.027Z,78.80
2022-10-30T23:05:36.978Z,78.80
2022-10-30T23:08:26.355Z,78.80
2022-10-30T23:11:16.313Z,78.80
2022-10-30T23:14:05.052Z,78.80
2022-10-30T23:16:53.168Z,78.80
2022-10-30T23:19:41.563Z,78.80
2022-10-30T23:22:29.820Z,78.80
2022-10-30T23:25:18.476Z,78.80
2022-10-30T23:28:08.873Z,78.80
2022-10-30T23:30:57.699Z,78.90
2022-10-30T23:33:47.934Z,78.80
2022-10-30T23:36:36.619Z,78.90
2022-10-30T23:39:24.565Z,78.90
2022-10-30T23:42:13.003Z,78.90
2022-10-30T23:45:02.726Z,78.90
2022-10-30T23:47:51.204Z,78.90
2022-10-30T23:50:39.244Z,78.90
2022-10-30T23:53:28.085Z,78.90
2022-10-30T23:56:17.095Z,79.00
2022-10-30T23:59:06.314Z,78.90
